Time;durP1;ratioP1;P1;durP2;ratioP2;P2;SDS_P1;SDS_P2;PMS_P1;PMS_P2;Temp;Humidity;BMP_temperature;BMP_pressure;BME280_temperature;BME280_humidity;BME280_pressure;Samples;Min_cycle;Max_cycle;Signal;HPM_P1;HPM_P2
2022/01/09 00:00:05;;;;;;;;;1.00;1.00;;;;;8.82;61.53;99544.88;4992647;28;45334;-71
2022/01/09 00:02:30;;;;;;;;;0.00;0.00;;;;;8.62;61.83;99521.53;4999301;28;45531;-72
2022/01/09 00:04:55;;;;;;;;;5.00;2.00;;;;;8.52;62.60;99534.69;4999942;28;45594;-72
2022/01/09 00:07:21;;;;;;;;;2.25;1.00;;;;;8.46;61.97;99527.50;5008343;28;51019;-72
2022/01/09 00:09:46;;;;;;;;;2.50;2.50;;;;;8.66;62.71;99575.72;5005733;28;44911;-71
2022/01/09 00:12:11;;;;;;;;;1.00;1.00;;;;;8.39;62.26;99539.78;4990843;28;45086;-71
2022/01/09 00:14:37;;;;;;;;;1.75;1.00;;;;;8.54;62.76;99576.44;5001433;28;46583;-70
2022/01/09 00:17:03;;;;;;;;;3.00;0.25;;;;;8.58;62.43;99580.03;5007065;28;45117;-71
2022/01/09 00:19:28;;;;;;;;;4.00;1.25;;;;;8.36;62.47;99560.13;4988957;28;45028;-69
2022/01/09 00:21:54;;;;;;;;;4.00;3.00;;;;;8.23;62.28;99561.69;5007580;28;45820;-70
2022/01/09 00:24:19;;;;;;;;;2.25;1.50;;;;;8.30;62.05;99582.25;4997099;28;45563;-70
2022/01/09 00:26:45;;;;;;;;;2.25;1.00;;;;;8.40;62.89;99604.56;5004687;28;45156;-72
2022/01/09 00:29:10;;;;;;;;;2.25;2.25;;;;;8.43;62.70;99615.28;5000679;28;45286;-70
2022/01/09 00:31:36;;;;;;;;;1.50;1.00;;;;;8.43;62.13;99617.94;4999145;28;45326;-71
2022/01/09 00:34:02;;;;;;;;;2.00;2.00;;;;;8.32;62.95;99612.41;4994004;28;45506;-70
2022/01/09 00:36:27;;;;;;;;;4.00;2.75;;;;;8.17;63.22;99585.56;4998834;28;45291;-71
2022/01/09 00:38:52;;;;;;;;;1.00;1.00;;;;;8.33;63.85;99626.63;4993395;28;46025;-71
2022/01/09 00:41:18;;;;;;;;;3.00;1.25;;;;;8.34;64.51;99628.41;5004881;28;45051;-71
2022/01/09 00:43:44;;;;;;;;;1.00;1.00;;;;;8.18;63.70;99608.63;5007395;28;45158;-69
2022/01/09 00:46:09;;;;;;;;;5.00;1.00;;;;;8.28;64.24;99634.50;5009106;28;44931;-71
2022/01/09 00:48:35;;;;;;;;;3.50;1.25;;;;;8.25;63.80;99639.78;4992575;28;45618;-70
2022/01/09 00:51:01;;;;;;;;;5.00;1.25;;;;;8.19;64.96;99643.22;5010845;28;44987;-70
2022/01/09 00:53:26;;;;;;;;;0.75;0.75;;;;;8.05;64.76;99631.44;5005619;28;45527;-71
2022/01/09 00:55:51;;;;;;;;;2.00;1.25;;;;;8.12;63.51;99651.97;5002411;28;44924;-71
2022/01/09 00:58:17;;;;;;;;;4.00;2.25;;;;;7.92;63.41;99625.00;5004390;28;45292;-70
2022/01/09 01:00:42;;;;;;;;;0.75;0.00;;;;;8.11;63.10;99671.47;5009519;28;45244;-70
2022/01/09 01:03:07;;;;;;;;;3.25;1.00;;;;;8.08;63.22;99674.06;5008739;28;45554;-69
2022/01/09 01:05:33;;;;;;;;;1.75;0.25;;;;;8.11;62.42;99680.31;4993036;28;45184;-70
2022/01/09 01:07:58;;;;;;;;;1.00;1.00;;;;;8.11;61.87;99700.72;5008843;28;45457;-70
2022/01/09 01:10:24;;;;;;;;;1.25;1.00;;;;;8.10;62.27;99698.91;5001596;28;45204;-70
2022/01/09 01:12:49;;;;;;;;;2.50;1.00;;;;;7.93;62.29;99675.53;5004397;28;45738;-71
2022/01/09 01:15:15;;;;;;;;;1.00;1.00;;;;;8.06;61.73;99715.69;4994822;28;45018;-69
2022/01/09 01:17:41;;;;;;;;;3.00;1.00;;;;;8.09;61.08;99731.72;4999652;28;45024;-69
2022/01/09 01:20:08;;;;;;;;;2.50;1.00;;;;;8.05;61.28;99719.22;4998767;28;45035;-70
2022/01/09 01:22:34;;;;;;;;;1.00;1.00;;;;;8.08;61.27;99737.91;5011916;28;46815;-71
2022/01/09 01:25:00;;;;;;;;;1.25;1.25;;;;;8.06;62.58;99737.88;4982780;28;45047;-70
2022/01/09 01:27:26;;;;;;;;;1.00;1.00;;;;;7.47;61.74;99661.31;4992168;28;45031;-69
2022/01/09 01:29:51;;;;;;;;;1.75;1.00;;;;;7.94;62.53;99751.81;4995134;28;45089;-70
2022/01/09 01:32:17;;;;;;;;;7.50;1.75;;;;;7.78;62.92;99744.38;4994448;28;46096;-70
2022/01/09 01:34:42;;;;;;;;;4.75;2.00;;;;;7.84;63.26;99763.13;4991173;28;45258;-70
2022/01/09 01:37:08;;;;;;;;;4.00;2.00;;;;;7.78;63.61;99765.66;4992042;28;45605;-71
2022/01/09 01:39:33;;;;;;;;;2.50;2.50;;;;;7.85;63.01;99796.84;4997485;28;45472;-70
2022/01/09 01:41:58;;;;;;;;;2.50;0.75;;;;;7.87;63.19;99804.84;4994309;28;45356;-69
2022/01/09 01:44:24;;;;;;;;;3.75;0.50;;;;;7.84;64.36;99804.78;4993764;28;45357;-69
2022/01/09 01:46:49;;;;;;;;;1.75;0.25;;;;;7.80;65.40;99811.78;4999033;28;45326;-70
2022/01/09 01:49:15;;;;;;;;;2.00;1.00;;;;;7.68;66.47;99824.81;4994470;28;45102;-69
2022/01/09 01:51:44;;;;;;;;;4.00;1.00;;;;;7.81;67.77;99845.50;4990477;28;47121;-69
2022/01/09 01:54:11;;;;;;;;;1.50;1.00;;;;;7.57;68.26;99798.88;4999072;28;45251;-72
2022/01/09 01:56:37;;;;;;;;;2.00;0.75;;;;;7.77;69.11;99854.28;4999604;28;45263;-69
2022/01/09 01:59:02;;;;;;;;;5.00;1.75;;;;;7.81;68.99;99832.19;5005554;28;45371;-69
2022/01/09 02:01:28;;;;;;;;;1.25;1.00;;;;;7.64;68.38;99791.03;5007765;28;45970;-69
2022/01/09 02:03:54;;;;;;;;;1.00;1.00;;;;;8.01;68.45;99831.75;5005332;28;45132;-68
2022/01/09 02:06:19;;;;;;;;;2.50;0.75;;;;;8.23;67.71;99860.63;5002005;28;45467;-70
2022/01/09 02:08:45;;;;;;;;;0.00;0.00;;;;;8.06;67.40;99833.63;5010510;28;45076;-69
2022/01/09 02:11:12;;;;;;;;;2.00;0.00;;;;;8.09;66.42;99847.00;5005999;28;45359;-70
2022/01/09 02:13:41;;;;;;;;;0.00;0.00;;;;;7.85;65.67;99812.81;5001344;28;44911;-69
2022/01/09 02:16:16;;;;;;;;;3.50;1.00;;;;;8.05;65.73;99868.19;5009110;28;45039;-67
2022/01/09 02:18:42;;;;;;;;;1.00;0.50;;;;;7.99;66.50;99871.63;4997555;28;45396;-70
2022/01/09 02:21:10;;;;;;;;;2.25;1.00;;;;;7.94;66.87;99874.16;4992377;28;46651;-71
2022/01/09 02:23:37;;;;;;;;;0.75;0.00;;;;;7.33;66.48;99800.97;4997058;28;44918;-71
2022/01/09 02:26:02;;;;;;;;;0.75;0.00;;;;;7.77;67.12;99880.88;4993623;28;45037;-71
2022/01/09 02:28:29;;;;;;;;;1.00;1.00;;;;;7.81;64.88;99881.84;4997078;28;45320;-70
2022/01/09 02:30:54;;;;;;;;;0.00;0.00;;;;;7.82;65.15;99870.31;4994363;28;45198;-71
2022/01/09 02:33:20;;;;;;;;;2.00;0.75;;;;;7.85;65.01;99884.63;4994610;28;44879;-71
2022/01/09 02:35:51;;;;;;;;;2.00;2.00;;;;;7.97;65.23;99886.66;5006055;28;45097;-71
2022/01/09 02:38:17;;;;;;;;;1.00;1.00;;;;;8.14;64.78;99880.81;4996663;28;45356;-71
2022/01/09 02:40:43;;;;;;;;;0.00;0.00;;;;;8.16;63.97;99881.75;4993807;28;45158;-70
2022/01/09 02:43:08;;;;;;;;;1.75;0.00;;;;;8.20;63.46;99896.88;5002362;28;44952;-71
2022/01/09 02:45:34;;;;;;;;;0.00;0.00;;;;;8.20;63.72;99910.19;5002611;28;45076;-71
2022/01/09 02:48:02;;;;;;;;;2.00;0.00;;;;;8.02;63.61;99886.72;4992828;28;45150;-71
2022/01/09 02:50:33;;;;;;;;;0.00;0.00;;;;;7.90;63.35;99876.72;5003033;28;45281;-70
2022/01/09 02:53:12;;;;;;;;;1.00;1.00;;;;;8.12;63.85;99916.25;4996044;28;45381;-70
2022/01/09 02:55:38;;;;;;;;;0.00;0.00;;;;;8.05;63.76;99916.06;5010747;28;45039;-70
2022/01/09 02:58:04;;;;;;;;;0.00;0.00;;;;;7.86;63.21;99888.16;4996510;28;45631;-72
2022/01/09 03:00:36;;;;;;;;;3.50;0.00;;;;;7.77;63.40;99894.16;5003513;28;45859;-70
2022/01/09 03:03:03;;;;;;;;;1.50;0.75;;;;;7.58;63.72;99895.47;5000851;28;45057;-71
2022/01/09 03:05:30;;;;;;;;;0.75;0.00;;;;;7.76;64.84;99929.59;4991440;28;45081;-71
2022/01/09 03:07:56;;;;;;;;;0.00;0.00;;;;;7.74;65.25;99940.19;5002475;28;44924;-71
2022/01/09 03:10:22;;;;;;;;;0.00;0.00;;;;;7.73;65.24;99934.81;5006316;28;45475;-72
2022/01/09 03:12:49;;;;;;;;;0.00;0.00;;;;;7.74;65.48;99931.31;5004472;28;45111;-71
2022/01/09 03:15:15;;;;;;;;;2.25;0.00;;;;;7.72;65.03;99933.00;5007147;28;45090;-71
2022/01/09 03:17:42;;;;;;;;;1.50;1.50;;;;;7.34;65.44;99890.44;4995038;28;45731;-72
2022/01/09 03:20:15;;;;;;;;;0.50;0.50;;;;;7.66;64.94;99938.19;4998153;28;45236;-70
2022/01/09 03:22:41;;;;;;;;;1.25;0.00;;;;;7.46;64.66;99924.41;4990402;28;46337;-71
2022/01/09 03:25:08;;;;;;;;;0.50;0.00;;;;;7.15;64.89;99860.75;5009730;28;45418;-71
2022/01/09 03:27:33;;;;;;;;;2.75;1.00;;;;;7.46;65.08;99901.38;4992138;28;45341;-71
2022/01/09 03:29:59;;;;;;;;;0.75;0.00;;;;;7.70;64.60;99940.94;5000481;28;45703;-71
2022/01/09 03:32:24;;;;;;;;;1.75;0.00;;;;;7.49;65.04;99914.75;5001315;28;44939;-71
2022/01/09 03:34:50;;;;;;;;;0.75;0.75;;;;;7.57;65.42;99918.50;4999554;28;45443;-72
2022/01/09 03:37:15;;;;;;;;;1.00;0.00;;;;;7.81;64.93;99964.28;5004981;28;44944;-71
2022/01/09 03:39:41;;;;;;;;;3.50;0.00;;;;;7.61;64.89;99959.34;4997428;28;46146;-72
2022/01/09 03:42:06;;;;;;;;;1.00;0.00;;;;;7.60;65.96;99954.88;4997652;28;45083;-71
2022/01/09 03:44:31;;;;;;;;;0.00;0.00;;;;;7.89;66.28;99994.63;4994128;28;44944;-71
2022/01/09 03:46:57;;;;;;;;;3.00;0.00;;;;;7.72;64.88;99965.84;5001622;28;45164;-71
2022/01/09 03:49:23;;;;;;;;;0.00;0.00;;;;;8.02;65.93;100012.69;4995421;28;45262;-71
2022/01/09 03:51:51;;;;;;;;;2.25;0.25;;;;;8.01;66.58;100002.88;4992741;28;45017;-71
2022/01/09 03:54:20;;;;;;;;;3.00;0.00;;;;;8.02;65.89;100010.00;4995528;28;45025;-70
2022/01/09 03:56:46;;;;;;;;;2.50;0.00;;;;;7.93;66.61;99983.19;4998918;28;45094;-70
2022/01/09 03:59:11;;;;;;;;;4.75;1.00;;;;;8.14;67.26;99990.78;5003570;28;45109;-71
2022/01/09 04:01:37;;;;;;;;;1.00;0.00;;;;;8.06;65.01;99965.75;4997888;28;44884;-70
2022/01/09 04:04:02;;;;;;;;;0.25;0.00;;;;;8.07;65.17;99976.44;4992323;28;45282;-70
2022/01/09 04:06:28;;;;;;;;;0.00;0.00;;;;;7.79;66.02;99971.28;4995471;28;45328;-70
2022/01/09 04:08:53;;;;;;;;;0.25;0.00;;;;;7.88;66.28;99976.84;4992368;28;45584;-71
2022/01/09 04:11:27;;;;;;;;;1.25;0.00;;;;;7.43;66.24;99916.34;4996850;28;44952;-70
2022/01/09 04:13:53;;;;;;;;;0.00;0.00;;;;;7.76;66.25;99964.16;4998552;28;45173;-71
2022/01/09 04:16:19;;;;;;;;;1.00;1.00;;;;;7.67;66.53;99970.16;5008028;28;45073;-70
2022/01/09 04:18:44;;;;;;;;;0.00;0.00;;;;;7.31;67.00;99924.88;4999202;28;45169;-70
2022/01/09 04:21:09;;;;;;;;;1.00;0.25;;;;;7.21;67.26;99894.56;5003401;28;44978;-71
2022/01/09 04:23:35;;;;;;;;;2.00;0.00;;;;;7.54;66.89;99966.25;4993897;28;45507;-70
2022/01/09 04:26:00;;;;;;;;;0.00;0.00;;;;;7.62;67.21;99993.03;4999835;28;45512;-71
2022/01/09 04:28:26;;;;;;;;;3.25;1.00;;;;;7.43;66.84;99964.19;5001543;28;46864;-70
2022/01/09 04:30:51;;;;;;;;;1.00;1.00;;;;;7.52;67.45;99964.41;4998370;28;45090;-71
2022/01/09 04:33:16;;;;;;;;;0.50;0.50;;;;;7.68;67.10;99993.19;4996320;28;45058;-70
2022/01/09 04:35:42;;;;;;;;;2.00;1.00;;;;;7.64;67.36;99977.13;4993548;28;45460;-70
2022/01/09 04:38:08;;;;;;;;;0.25;0.00;;;;;7.77;67.06;99978.34;5002632;28;46355;-72
2022/01/09 04:40:33;;;;;;;;;2.00;0.00;;;;;7.60;66.05;99964.63;4995218;28;45055;-71
2022/01/09 04:43:02;;;;;;;;;0.00;0.00;;;;;7.68;66.53;99973.69;5002837;28;45062;-70
2022/01/09 04:45:28;;;;;;;;;2.00;1.00;;;;;7.72;67.58;99991.50;4999979;28;44999;-71
2022/01/09 04:47:56;;;;;;;;;3.75;0.00;;;;;7.68;66.03;99979.00;5000063;28;45628;-70
2022/01/09 04:50:28;;;;;;;;;2.75;0.00;;;;;7.66;66.83;99989.59;5003585;28;45045;-70
2022/01/09 04:53:04;;;;;;;;;2.00;0.00;;;;;7.50;66.53;99998.91;4995879;28;44998;-71
2022/01/09 04:55:32;;;;;;;;;3.00;0.00;;;;;7.54;67.57;100003.47;4998522;28;45170;-70
2022/01/09 04:57:58;;;;;;;;;1.00;0.00;;;;;7.48;67.75;99984.69;4996612;28;45155;-70
2022/01/09 05:00:24;;;;;;;;;3.50;1.75;;;;;7.32;68.71;99972.75;5007952;28;45159;-70
2022/01/09 05:02:49;;;;;;;;;1.50;1.00;;;;;7.15;68.80;99959.03;4996768;28;44970;-72
2022/01/09 05:05:16;;;;;;;;;3.25;0.25;;;;;7.27;68.42;99986.78;5004392;28;45483;-70
2022/01/09 05:07:41;;;;;;;;;3.00;1.00;;;;;7.43;69.17;100010.25;5001032;28;45311;-71
2022/01/09 05:10:08;;;;;;;;;1.00;1.00;;;;;7.27;69.35;99971.72;5010044;28;45079;-70
2022/01/09 05:12:34;;;;;;;;;1.00;0.00;;;;;7.51;68.56;99995.41;4997443;28;45069;-70
2022/01/09 05:15:00;;;;;;;;;1.00;0.50;;;;;7.59;68.45;99997.38;5000662;28;45049;-71
2022/01/09 05:17:25;;;;;;;;;4.00;0.50;;;;;7.57;67.37;100000.91;4998193;28;45130;-71
2022/01/09 05:19:52;;;;;;;;;0.75;0.00;;;;;7.50;67.64;99988.28;4989238;28;45235;-71
2022/01/09 05:22:18;;;;;;;;;1.50;0.50;;;;;7.60;67.74;100002.72;4999534;28;45059;-70
2022/01/09 05:24:44;;;;;;;;;0.00;0.00;;;;;7.60;67.87;100005.38;4998509;28;45041;-70
2022/01/09 05:27:10;;;;;;;;;1.00;0.00;;;;;7.31;67.98;99948.78;4994903;28;45496;-71
2022/01/09 05:29:35;;;;;;;;;0.00;0.00;;;;;7.34;67.11;99938.25;5002242;28;45027;-72
2022/01/09 05:32:01;;;;;;;;;2.75;1.00;;;;;7.62;67.59;99984.16;4996351;28;45082;-71
2022/01/09 05:34:26;;;;;;;;;3.00;0.25;;;;;7.54;68.00;99955.63;5002258;28;45020;-71
2022/01/09 05:36:51;;;;;;;;;1.25;0.00;;;;;7.76;67.52;99980.09;5004407;28;45607;-71
2022/01/09 05:39:17;;;;;;;;;0.50;0.00;;;;;7.64;67.32;99939.91;4999045;28;45046;-70
2022/01/09 05:41:46;;;;;;;;;3.00;1.00;;;;;7.65;66.57;99925.75;4987696;28;45099;-71
2022/01/09 05:44:12;;;;;;;;;1.00;0.00;;;;;7.41;66.67;99875.53;4995920;28;45109;-71
2022/01/09 05:46:37;;;;;;;;;1.00;1.00;;;;;7.80;66.54;99934.09;4994956;28;45626;-70
2022/01/09 05:49:03;;;;;;;;;0.75;0.75;;;;;7.92;66.45;99952.13;5000929;28;45294;-71
2022/01/09 05:51:28;;;;;;;;;1.25;0.00;;;;;7.92;65.83;99950.38;4994775;28;45019;-70
2022/01/09 05:53:54;;;;;;;;;3.75;0.75;;;;;7.68;65.63;99910.78;4988006;28;45092;-72
2022/01/09 05:56:19;;;;;;;;;0.00;0.00;;;;;8.07;65.82;99988.84;5012952;28;45572;-71
2022/01/09 05:58:44;;;;;;;;;3.25;1.00;;;;;8.12;66.44;100041.28;5002478;28;44967;-71
2022/01/09 06:01:10;;;;;;;;;1.25;0.00;;;;;8.12;66.40;100038.63;4998714;28;45098;-70
2022/01/09 06:03:38;;;;;;;;;4.50;0.75;;;;;8.16;66.58;100017.44;4981733;28;45163;-70
2022/01/09 06:06:04;;;;;;;;;3.25;2.00;;;;;8.19;66.29;100009.53;5003993;28;46111;-71
2022/01/09 06:08:30;;;;;;;;;4.00;1.75;;;;;8.39;66.34;100020.63;4995575;28;45066;-71
2022/01/09 06:10:55;;;;;;;;;1.00;0.50;;;;;8.40;65.85;100011.81;4990477;28;45252;-71
2022/01/09 06:13:20;;;;;;;;;2.25;0.00;;;;;8.11;65.01;99945.47;4994461;28;45507;-72
2022/01/09 06:15:46;;;;;;;;;2.25;0.25;;;;;8.51;65.58;100018.28;5001766;28;45645;-70
2022/01/09 06:18:14;;;;;;;;;0.75;0.00;;;;;8.48;65.26;100005.81;4996757;28;45015;-71
2022/01/09 06:20:40;;;;;;;;;0.50;0.50;;;;;8.32;64.57;99978.78;4999944;28;45038;-71
2022/01/09 06:23:05;;;;;;;;;1.75;1.75;;;;;8.16;65.06;99964.22;4994453;28;45119;-71
2022/01/09 06:25:31;;;;;;;;;2.50;0.00;;;;;8.42;64.80;100021.59;4997456;28;45554;-71
2022/01/09 06:27:56;;;;;;;;;1.00;1.00;;;;;8.04;64.63;99981.69;4991809;28;45166;-71
2022/01/09 06:30:21;;;;;;;;;1.00;1.00;;;;;8.19;65.54;99998.88;4998520;28;45012;-71
2022/01/09 06:32:47;;;;;;;;;1.50;0.00;;;;;8.02;65.62;100001.13;4995581;28;44919;-71
2022/01/09 06:35:12;;;;;;;;;0.00;0.00;;;;;8.16;66.03;100026.31;5003440;28;45277;-72
2022/01/09 06:37:38;;;;;;;;;1.00;1.00;;;;;8.17;66.15;100017.47;5002841;28;45398;-71
2022/01/09 06:40:04;;;;;;;;;1.00;1.00;;;;;7.89;65.73;99976.88;4991389;28;45237;-72
2022/01/09 06:42:29;;;;;;;;;2.00;2.00;;;;;8.02;65.84;100006.44;4991538;28;45513;-72
2022/01/09 06:44:55;;;;;;;;;1.50;0.00;;;;;8.12;65.47;100025.34;4997257;28;45563;-72
2022/01/09 06:47:20;;;;;;;;;1.00;0.00;;;;;8.09;65.43;100035.00;4993251;28;44999;-71
2022/01/09 06:49:46;;;;;;;;;1.25;0.00;;;;;8.17;65.27;100049.41;5002335;28;45224;-71
2022/01/09 06:52:11;;;;;;;;;0.00;0.00;;;;;8.12;65.25;100048.38;4991743;28;45078;-72
2022/01/09 06:54:37;;;;;;;;;2.75;0.50;;;;;8.09;65.15;100037.66;4996304;28;45200;-70
2022/01/09 06:57:02;;;;;;;;;0.00;0.00;;;;;7.91;64.93;100017.72;4992020;28;45290;-71
2022/01/09 06:59:28;;;;;;;;;0.75;0.75;;;;;7.76;65.43;100006.69;4980895;28;45153;-71
2022/01/09 07:01:53;;;;;;;;;1.50;1.00;;;;;7.86;65.80;100039.75;4991580;28;45173;-72
2022/01/09 07:04:18;;;;;;;;;0.75;0.50;;;;;7.67;65.65;100007.38;4993468;28;45249;-70
2022/01/09 07:06:44;;;;;;;;;0.00;0.00;;;;;7.65;65.69;100009.06;4997224;28;44945;-71
2022/01/09 07:09:09;;;;;;;;;0.00;0.00;;;;;7.77;66.91;100042.16;4991402;28;45019;-71
2022/01/09 07:11:34;;;;;;;;;3.50;0.00;;;;;7.76;66.54;100033.28;4995247;28;45007;-71
2022/01/09 07:14:00;;;;;;;;;2.00;0.00;;;;;7.73;66.89;100041.19;4997134;28;45111;-71
2022/01/09 07:16:26;;;;;;;;;0.00;0.00;;;;;7.68;66.55;100014.47;4997535;28;44956;-70
2022/01/09 07:18:51;;;;;;;;;0.00;0.00;;;;;7.68;66.09;100017.13;4998519;28;45126;-72
2022/01/09 07:21:17;;;;;;;;;2.00;0.00;;;;;7.49;66.22;99999.81;5003001;28;45132;-70
2022/01/09 07:23:42;;;;;;;;;3.00;0.00;;;;;7.69;66.32;100039.31;4997357;28;45190;-70
2022/01/09 07:26:07;;;;;;;;;1.00;0.00;;;;;7.60;66.88;100037.28;4994931;28;45236;-70
2022/01/09 07:28:33;;;;;;;;;2.00;0.00;;;;;7.64;66.74;100051.56;4994415;28;45376;-71
2022/01/09 07:30:58;;;;;;;;;0.00;0.00;;;;;7.44;67.54;100045.69;5003787;28;45261;-71
2022/01/09 07:33:24;;;;;;;;;0.75;0.50;;;;;7.56;67.82;100054.91;4988315;28;45601;-70
2022/01/09 07:35:49;;;;;;;;;0.75;0.00;;;;;7.38;68.61;100039.38;4981946;28;45277;-69
2022/01/09 07:38:14;;;;;;;;;1.50;0.00;;;;;7.49;69.56;100052.97;4980293;28;45599;-70
2022/01/09 07:40:40;;;;;;;;;0.75;0.75;;;;;7.43;69.39;100058.09;4982633;28;45581;-70
2022/01/09 07:43:05;;;;;;;;;0.00;0.00;;;;;7.28;69.91;100034.66;4975621;28;47129;-71
2022/01/09 07:45:31;;;;;;;;;1.25;0.25;;;;;7.36;69.38;100067.66;4976792;28;45412;-70
2022/01/09 07:47:58;;;;;;;;;0.00;0.00;;;;;7.29;70.16;100051.50;4977246;28;45693;-70
2022/01/09 07:50:26;;;;;;;;;1.00;0.00;;;;;7.24;69.49;100019.47;4985027;28;45335;-70
2022/01/09 07:52:52;;;;;;;;;1.25;0.00;;;;;7.37;70.43;100042.91;4975730;28;45464;-71
2022/01/09 07:55:19;;;;;;;;;0.75;0.00;;;;;7.31;70.37;100036.47;4988325;28;45211;-71
2022/01/09 07:57:45;;;;;;;;;0.00;0.00;;;;;7.35;69.82;100038.38;4995551;28;45412;-71
2022/01/09 08:00:11;;;;;;;;;2.00;1.00;;;;;7.45;70.21;100052.81;4996124;28;45611;-71
2022/01/09 08:02:37;;;;;;;;;1.00;0.00;;;;;7.22;69.68;100007.91;5004899;28;45961;-70
2022/01/09 08:05:03;;;;;;;;;2.00;0.00;;;;;7.16;69.76;100008.66;4992904;28;45157;-70
2022/01/09 08:07:28;;;;;;;;;2.75;1.00;;;;;7.35;70.17;100027.75;5008713;28;45318;-70
2022/01/09 08:09:54;;;;;;;;;3.00;0.00;;;;;7.32;70.14;100015.25;5011842;28;45211;-70
2022/01/09 08:12:19;;;;;;;;;0.75;0.75;;;;;7.46;69.91;100038.69;4996113;28;45881;-71
2022/01/09 08:14:45;;;;;;;;;0.50;0.00;;;;;7.29;68.96;100016.94;4991450;28;45151;-71
2022/01/09 08:17:12;;;;;;;;;3.00;0.00;;;;;7.50;68.99;100051.19;4991840;28;44992;-71
2022/01/09 08:19:38;;;;;;;;;1.75;0.00;;;;;7.50;68.63;100057.41;4975301;28;45285;-71
2022/01/09 08:22:05;;;;;;;;;0.50;0.00;;;;;7.55;69.37;100058.41;4975502;28;46370;-71
2022/01/09 08:24:31;;;;;;;;;0.00;0.00;;;;;7.38;68.62;100020.75;4987774;28;45394;-71
2022/01/09 08:26:57;;;;;;;;;0.00;0.00;;;;;7.46;68.46;100047.56;4975273;28;45492;-71
2022/01/09 08:29:23;;;;;;;;;1.00;1.00;;;;;7.64;68.92;100057.78;4994317;28;45333;-70
2022/01/09 08:31:48;;;;;;;;;0.00;0.00;;;;;7.68;68.19;100059.66;4975842;28;48066;-71
2022/01/09 08:34:14;;;;;;;;;0.00;0.00;;;;;7.38;68.40;100009.25;4999005;28;45352;-71
2022/01/09 08:36:39;;;;;;;;;0.00;0.00;;;;;7.69;67.80;100052.59;5011302;28;45204;-73
2022/01/09 08:39:05;;;;;;;;;2.00;0.00;;;;;7.67;67.91;100044.59;4991786;28;45454;-71
2022/01/09 08:41:34;;;;;;;;;2.00;0.50;;;;;7.71;68.32;100042.91;4983878;28;46234;-72
2022/01/09 08:44:04;;;;;;;;;0.00;0.00;;;;;7.74;68.25;100037.66;4969712;28;45382;-71
2022/01/09 08:46:30;;;;;;;;;0.75;0.00;;;;;7.90;67.11;100053.16;4990045;28;45347;-71
2022/01/09 08:48:56;;;;;;;;;0.75;0.75;;;;;7.93;67.13;100060.31;4989407;28;45303;-73
2022/01/09 08:51:22;;;;;;;;;1.00;1.00;;;;;7.70;68.17;100001.22;4998285;28;45559;-72
2022/01/09 08:53:50;;;;;;;;;0.00;0.00;;;;;7.99;68.11;100048.94;5002698;28;45131;-72
2022/01/09 08:56:17;;;;;;;;;3.25;2.25;;;;;8.00;67.08;100041.00;4992935;28;44963;-72
2022/01/09 08:58:43;;;;;;;;;0.50;0.50;;;;;8.06;67.15;100056.22;4976782;28;45886;-72
2022/01/09 09:01:08;;;;;;;;;0.00;0.00;;;;;7.87;67.54;100014.94;4989058;28;46214;-72
2022/01/09 09:03:36;;;;;;;;;0.75;0.00;;;;;7.98;67.21;100026.75;4991030;28;46378;-74
2022/01/09 09:06:02;;;;;;;;;1.00;1.00;;;;;8.15;67.00;100050.22;4982949;28;45516;-71
2022/01/09 09:08:27;;;;;;;;;1.50;0.75;;;;;8.21;67.70;100072.53;4982914;28;45339;-68
2022/01/09 09:10:52;;;;;;;;;2.50;0.75;;;;;8.31;66.90;100073.69;4976191;28;47607;-70
2022/01/09 09:13:17;;;;;;;;;0.00;0.00;;;;;8.39;66.87;100071.22;4990723;28;45239;-66
2022/01/09 09:15:43;;;;;;;;;0.00;0.00;;;;;8.43;67.32;100065.13;4981687;28;45671;-67
2022/01/09 09:18:08;;;;;;;;;1.00;1.00;;;;;8.54;67.27;100082.25;4981979;28;45350;-69
2022/01/09 09:20:33;;;;;;;;;1.00;1.00;;;;;8.60;65.81;100082.41;4994121;28;45970;-69
2022/01/09 09:22:59;;;;;;;;;1.00;0.00;;;;;8.54;65.72;100068.03;4987280;28;45819;-68
2022/01/09 09:25:24;;;;;;;;;2.50;0.00;;;;;8.70;66.32;100082.63;5002281;28;45368;-67
2022/01/09 09:27:50;;;;;;;;;1.00;0.00;;;;;8.68;66.20;100087.91;4988931;28;45528;-68
2022/01/09 09:30:15;;;;;;;;;1.00;0.00;;;;;8.70;66.97;100095.94;4994801;28;45608;-69
2022/01/09 09:32:42;;;;;;;;;0.00;0.00;;;;;8.66;67.56;100082.56;4987398;28;45414;-69
2022/01/09 09:35:08;;;;;;;;;2.25;1.00;;;;;8.81;67.37;100102.41;4985667;28;45469;-67
2022/01/09 09:37:34;;;;;;;;;2.00;2.00;;;;;8.70;68.07;100074.66;4982418;28;45505;-69
2022/01/09 09:40:00;;;;;;;;;3.25;1.50;;;;;8.80;67.85;100088.19;4986852;28;45779;-67
2022/01/09 09:42:26;;;;;;;;;1.00;1.00;;;;;8.81;67.08;100083.75;4985155;28;45412;-67
2022/01/09 09:44:51;;;;;;;;;3.00;1.00;;;;;8.77;67.58;100077.47;4991825;28;45407;-68
2022/01/09 09:47:19;;;;;;;;;3.50;2.00;;;;;8.89;67.53;100083.94;4955825;28;45469;-69
2022/01/09 09:49:46;;;;;;;;;2.00;2.00;;;;;8.75;66.49;100068.53;4995043;28;46094;-68
2022/01/09 09:52:15;;;;;;;;;1.50;1.50;;;;;8.74;66.48;100068.50;4997790;28;45132;-69
2022/01/09 09:54:41;;;;;;;;;3.75;3.75;;;;;8.80;66.29;100101.50;4994485;28;44923;-69
2022/01/09 09:57:06;;;;;;;;;1.50;1.50;;;;;8.82;66.59;100110.41;5000764;28;45086;-70
2022/01/09 09:59:37;;;;;;;;;2.00;1.00;;;;;8.76;66.75;100118.28;4994155;28;45695;-69
2022/01/09 10:02:12;;;;;;;;;3.75;3.75;;;;;8.82;66.67;100120.19;4999649;28;45110;-69
2022/01/09 10:05:05;;;;;;;;;1.00;1.00;;;;;8.62;66.49;100085.09;4999829;28;45148;-69
2022/01/09 10:07:30;;;;;;;;;5.25;3.25;;;;;8.53;67.08;100080.47;4977130;28;45434;-69
2022/01/09 10:10:03;;;;;;;;;2.75;2.00;;;;;8.81;66.84;100139.69;4989726;28;46112;-69
2022/01/09 10:12:31;;;;;;;;;2.00;2.00;;;;;8.84;66.75;100119.38;4964910;28;45367;-69
2022/01/09 10:15:01;;;;;;;;;2.00;1.00;;;;;8.78;67.02;100089.03;4977624;28;45364;-70
2022/01/09 10:17:27;;;;;;;;;5.00;2.00;;;;;8.73;66.22;100082.66;4994202;28;45385;-70
2022/01/09 10:20:14;;;;;;;;;5.00;4.00;;;;;8.93;65.89;100101.81;4993435;28;44992;-70
2022/01/09 10:22:59;;;;;;;;;6.50;5.50;;;;;8.98;65.38;100118.78;5009421;28;45196;-70
2022/01/09 10:25:32;;;;;;;;;3.00;2.00;;;;;8.85;65.36;100088.28;4999212;28;45145;-70
2022/01/09 10:28:14;;;;;;;;;5.00;2.00;;;;;9.04;65.95;100106.50;4984154;28;45040;-70
2022/01/09 10:30:43;;;;;;;;;3.75;2.75;;;;;8.89;65.05;100078.59;4992767;28;45370;-69
2022/01/09 10:33:12;;;;;;;;;2.25;2.00;;;;;9.15;65.22;100113.81;4991052;28;45670;-69
2022/01/09 10:35:40;;;;;;;;;2.00;1.00;;;;;9.16;65.44;100116.53;4998723;28;44947;-69
2022/01/09 10:38:22;;;;;;;;;3.50;1.75;;;;;9.14;64.65;100115.59;5003795;28;45415;-68
2022/01/09 10:40:57;;;;;;;;;5.75;3.00;;;;;9.17;65.22;100115.66;5002220;28;45130;-69
2022/01/09 10:43:37;;;;;;;;;8.75;3.25;;;;;9.23;64.68;100107.78;4990101;28;44901;-69
2022/01/09 10:46:03;;;;;;;;;4.00;3.00;;;;;9.33;65.54;100113.31;4971216;28;45360;-69
2022/01/09 10:48:54;;;;;;;;;2.00;2.00;;;;;9.38;64.43;100116.97;4993328;28;45582;-69
2022/01/09 10:51:20;;;;;;;;;6.00;2.00;;;;;9.40;63.89;100124.16;4995485;28;45514;-70
2022/01/09 10:53:46;;;;;;;;;2.00;2.00;;;;;9.27;64.02;100113.19;4999307;28;45412;-69
2022/01/09 10:56:11;;;;;;;;;7.25;7.25;;;;;9.35;63.90;100140.91;4990914;28;45559;-69
2022/01/09 10:58:39;;;;;;;;;11.75;6.00;;;;;9.34;65.05;100144.44;4982165;28;45405;-69
2022/01/09 11:01:09;;;;;;;;;6.00;5.00;;;;;9.18;65.16;100122.78;4990853;28;45266;-70
2022/01/09 11:03:35;;;;;;;;;3.00;3.00;;;;;9.27;65.07;100146.06;5001000;28;44998;-69
2022/01/09 11:06:01;;;;;;;;;5.75;4.75;;;;;9.06;65.21;100113.59;5004253;28;45621;-69
2022/01/09 11:08:29;;;;;;;;;6.25;4.75;;;;;9.05;64.52;100118.03;4999694;28;44978;-69
2022/01/09 11:10:55;;;;;;;;;5.75;4.50;;;;;8.94;64.76;100090.25;4990404;28;45651;-69
2022/01/09 11:13:24;;;;;;;;;8.50;7.25;;;;;9.28;65.32;100146.97;4996495;28;44967;-70
2022/01/09 11:18:34;;;;;;;;;4.75;4.75;;;;;9.20;64.05;100153.00;4990674;28;45107;-68
2022/01/09 11:21:00;;;;;;;;;14.25;12.00;;;;;9.18;64.30;100145.88;5003692;28;45844;-68
2022/01/09 11:23:40;;;;;;;;;6.25;3.75;;;;;8.90;63.34;100102.63;4994553;28;45263;-68
2022/01/09 11:26:13;;;;;;;;;3.00;3.00;;;;;8.92;63.94;100097.31;5002310;28;45255;-69
2022/01/09 11:28:42;;;;;;;;;11.50;11.50;;;;;9.20;64.83;100121.03;5003658;28;45244;-70
2022/01/09 11:31:27;;;;;;;;;5.00;2.75;;;;;9.30;64.73;100138.13;5007679;28;45551;-69
2022/01/09 11:34:19;;;;;;;;;5.50;3.00;;;;;9.41;64.04;100133.94;4998832;28;44972;-68
2022/01/09 11:37:05;;;;;;;;;3.50;3.50;;;;;9.49;63.72;100143.88;4986891;28;45281;-68